EDT,Max TemperatureF,Mean TemperatureF,Min TemperatureF,Max Dew PointF,MeanDew PointF,Min DewpointF,Max Humidity, Mean Humidity, Min Humidity, Max Sea Level PressureIn, Mean Sea Level PressureIn, Min Sea Level PressureIn, Max VisibilityMiles, Mean VisibilityMiles, Min VisibilityMiles, Max Wind SpeedMPH, Mean Wind SpeedMPH, Max Gust SpeedMPH,PrecipitationIn, CloudCover, Events, WindDirDegrees
2013-3-1,32,31,30,29,27,23,89,82,74,30.07,30.01,29.96,10,8,1,12,8,16,0.00,8,Snow,356
2013-3-2,30,28,25,23,20,17,82,71,56,30.11,30.08,30.06,10,10,7,14,10,20,0.00,8,Snow,349
2013-3-3,32,28,23,22,19,16,86,70,52,30.11,30.08,30.06,10,10,7,12,8,17,0.00,6,Snow,304
2013-3-4,38,29,20,26,21,18,88,71,48,30.12,30.05,29.96,10,10,5,12,4,17,0.00,4,Rain-Snow,118
2013-3-5,36,32,28,32,29,25,92,83,73,29.97,29.78,29.66,10,6,0,14,8,20,0.21,8,Rain-Snow,61
2013-3-6,32,30,27,27,25,23,88,83,79,30.25,30.06,29.77,10,7,1,21,13,30,0.01,8,Snow,328
2013-3-7,35,30,26,27,24,22,84,72,61,30.40,30.37,30.35,10,9,5,8,4,,0.00,7,,310
2013-3-8,41,30,20,26,22,17,88,69,46,30.48,30.42,30.36,10,9,4,9,3,,0.00,0,,85
2013-3-9,51,42,32,33,29,24,74,60,45,30.35,30.17,29.95,10,10,10,15,8,21,0.00,2,,141
2013-3-10,64,57,50,40,35,31,52,44,29,29.95,29.85,29.73,10,10,10,21,13,30,0.00,3,Rain,171
2013-3-11,58,45,32,48,39,29,88,81,50,29.86,29.71,29.62,10,8,3,22,14,29,0.06,8,Rain,228
2013-3-12,41,36,30,30,26,21,88,72,52,30.03,29.96,29.87,10,10,2,23,15,31,0.00,7,Rain-Snow,259
2013-3-13,31,28,25,26,20,17,81,70,58,30.32,30.18,30.03,10,8,1,18,13,28,0.00,6,Snow,291
2013-3-14,41,30,21,29,20,15,87,66,38,30.34,30.27,30.15,10,10,10,12,6,18,0.00,3,,248
2013-3-15,48,38,29,37,32,27,90,76,60,30.14,29.95,29.77,10,8,3,10,6,,0.00,3,Rain,190
2013-3-16,43,38,32,39,34,27,89,82,74,30.06,29.81,29.61,10,7,0,17,7,21,0.00,5,Fog-Rain-Thunderstorm,339
2013-3-17,38,34,30,27,24,20,82,70,61,30.16,30.08,29.97,10,10,3,17,11,25,0.00,7,Snow,64
2013-3-18,41,36,32,39,32,27,91,86,79,29.96,29.73,29.59,10,6,1,21,10,28,0.13,8,Rain-Snow,161
2013-3-19,39,32,25,27,16,12,79,56,34,30.10,29.99,29.85,10,10,10,29,18,38,0.00,3,,266
2013-3-20,32,27,22,17,12,6,71,54,40,30.10,30.04,30.01,10,10,10,23,12,32,0.00,4,Snow,284
2013-3-21,34,24,15,16,11,8,78,57,36,30.04,30.00,29.96,10,10,7,14,9,20,0.00,2,Snow,293
2013-3-22,41,30,18,23,15,10,83,56,28,30.06,30.03,29.99,10,10,10,10,3,16,0.00,0,,271
2013-3-23,46,38,29,26,22,17,81,56,37,30.08,30.02,29.92,10,10,10,10,3,16,0.00,3,,48
2013-3-24,33,31,29,28,26,24,88,80,69,29.92,29.68,29.46,10,6,0,21,12,32,0.13,7,Snow,56
2013-3-25,35,32,28,28,26,24,88,81,67,29.99,29.71,29.51,10,5,1,17,14,24,0.01,8,Snow,329
2013-3-26,37,34,30,27,25,23,84,73,54,30.25,30.13,30.00,10,10,2,14,10,18,0.00,8,Snow,299
2013-3-27,40,32,25,26,23,20,84,67,45,30.33,30.29,30.25,10,10,10,12,7,17,0.00,2,,280
2013-3-28,45,36,26,29,24,20,79,64,45,30.37,30.32,30.30,10,10,7,9,4,,0.00,0,,295
2013-3-29,53,41,29,33,29,26,88,67,38,30.32,30.28,30.22,10,10,7,7,1,,0.00,4,,341
2013-3-30,56,43,30,38,31,27,90,64,38,30.24,30.12,29.94,10,9,4,13,2,18,0.00,0,,189
2013-3-31,60,52,43,42,39,34,88,69,38,29.93,29.82,29.76,10,9,1,16,6,28,0.08,6,Rain,260